Time;durP1;ratioP1;P1;durP2;ratioP2;P2;SDS_P1;SDS_P2;PMS_P1;PMS_P2;Temp;Humidity;BMP_temperature;BMP_pressure;BME280_temperature;BME280_humidity;BME280_pressure;Samples;Min_cycle;Max_cycle;Signal;HPM_P1;HPM_P2
2024/02/07 00:00:35;;;;;;;;;;;;;;;8.51;60.69;97494.84;5047044;28;19933;-57
2024/02/07 00:03:24;;;;;;;;;;;;;;;8.53;60.94;97492.66;5048415;28;19924;-57
2024/02/07 00:06:12;;;;;;;;;;;;;;;8.53;61.00;97488.03;5046857;28;20012;-59
2024/02/07 00:09:01;;;;;;;;;;;;;;;8.52;60.82;97470.19;5043322;28;19969;-57
2024/02/07 00:11:49;;;;;;;;;;;;;;;8.54;60.84;97467.97;5043284;28;19935;-57
2024/02/07 00:14:37;;;;;;;;;;;;;;;8.54;61.10;97478.78;5041686;28;19971;-57
2024/02/07 00:17:25;;;;;;;;;;;;;;;8.50;61.41;97487.84;5047507;28;19935;-57
2024/02/07 00:20:14;;;;;;;;;;;;;;;8.51;61.41;97482.09;5038709;28;19925;-57
2024/02/07 00:23:07;;;;;;;;;;;;;;;8.56;61.52;97476.56;5042950;28;19932;-56
2024/02/07 00:25:55;;;;;;;;;;;;;;;8.53;61.40;97493.44;5041989;28;19977;-57
2024/02/07 00:28:43;;;;;;;;;;;;;;;8.46;61.87;97481.44;5044175;28;19929;-56
2024/02/07 00:31:34;;;;;;;;;;;;;;;8.50;61.99;97477.81;5044774;28;19928;-57
2024/02/07 00:34:22;;;;;;;;;;;;;;;8.52;61.85;97474.78;5047028;28;20321;-59
2024/02/07 00:37:12;;;;;;;;;;;;;;;8.51;62.29;97476.69;5041300;28;20030;-57
2024/02/07 00:40:01;;;;;;;;;;;;;;;8.48;62.32;97479.25;5047361;28;19933;-57
2024/02/07 00:42:51;;;;;;;;;;;;;;;8.52;62.19;97475.59;5048723;28;19931;-58
2024/02/07 00:45:39;;;;;;;;;;;;;;;8.58;61.75;97470.88;5047829;28;19932;-57
2024/02/07 00:48:27;;;;;;;;;;;;;;;8.52;62.01;97475.59;5044568;28;19924;-56
2024/02/07 00:51:15;;;;;;;;;;;;;;;8.52;62.42;97467.47;5043390;28;19929;-56
2024/02/07 00:54:05;;;;;;;;;;;;;;;8.47;62.30;97461.38;5040557;28;19936;-57
2024/02/07 00:56:55;;;;;;;;;;;;;;;8.48;62.96;97457.56;5048507;28;19929;-57
2024/02/07 00:59:43;;;;;;;;;;;;;;;8.49;62.74;97459.97;5045065;28;19924;-57
2024/02/07 01:02:31;;;;;;;;;;;;;;;8.42;63.33;97450.69;5037678;28;19956;-58
2024/02/07 01:05:19;;;;;;;;;;;;;;;8.43;63.04;97455.78;5034361;28;19964;-59
2024/02/07 01:08:07;;;;;;;;;;;;;;;8.41;63.57;97452.56;5048740;28;19925;-57
2024/02/07 01:10:59;;;;;;;;;;;;;;;8.36;63.15;97447.28;5046004;28;19932;-58
2024/02/07 01:13:47;;;;;;;;;;;;;;;8.39;63.23;97439.34;5039293;28;20389;-57
2024/02/07 01:16:35;;;;;;;;;;;;;;;8.46;62.84;97430.00;5045970;28;19936;-57
2024/02/07 01:19:24;;;;;;;;;;;;;;;8.37;63.05;97430.75;5044706;28;19924;-58
2024/02/07 01:22:12;;;;;;;;;;;;;;;8.41;62.96;97433.63;5046911;28;20302;-57
2024/02/07 01:25:00;;;;;;;;;;;;;;;8.38;63.00;97431.56;5040284;28;19925;-57
2024/02/07 01:27:50;;;;;;;;;;;;;;;8.43;63.12;97434.13;5044741;28;20015;-57
2024/02/07 01:30:41;;;;;;;;;;;;;;;8.40;63.08;97422.00;5046178;28;20086;-56
2024/02/07 01:33:29;;;;;;;;;;;;;;;8.43;62.80;97430.63;5026001;28;19955;-56
2024/02/07 01:36:20;;;;;;;;;;;;;;;8.44;62.72;97424.09;5039408;28;19925;-57
2024/02/07 01:39:10;;;;;;;;;;;;;;;8.45;62.81;97420.28;5047170;28;19960;-56
2024/02/07 01:41:59;;;;;;;;;;;;;;;8.44;63.06;97419.50;5042428;28;20311;-57
2024/02/07 01:44:49;;;;;;;;;;;;;;;8.35;63.25;97422.09;5041432;28;19964;-57
2024/02/07 01:47:36;;;;;;;;;;;;;;;8.37;63.19;97419.94;5048598;28;20290;-56
2024/02/07 01:50:25;;;;;;;;;;;;;;;8.39;62.95;97414.19;5043045;28;19933;-56
2024/02/07 01:53:13;;;;;;;;;;;;;;;8.42;63.09;97404.69;5046529;28;20784;-56
2024/02/07 01:56:02;;;;;;;;;;;;;;;8.40;62.71;97402.25;5032268;28;19951;-57
2024/02/07 01:58:50;;;;;;;;;;;;;;;8.35;62.90;97378.78;5044033;28;19925;-57
2024/02/07 02:01:43;;;;;;;;;;;;;;;8.37;63.05;97375.81;5025588;28;19925;-57
2024/02/07 02:04:32;;;;;;;;;;;;;;;8.42;62.77;97373.00;5040790;28;19925;-56
2024/02/07 02:07:21;;;;;;;;;;;;;;;8.29;62.92;97361.09;5042285;28;19933;-57
2024/02/07 02:10:10;;;;;;;;;;;;;;;8.31;63.10;97356.19;5044507;28;19976;-57
2024/02/07 02:13:01;;;;;;;;;;;;;;;8.34;62.96;97354.75;5039314;28;20382;-56
2024/02/07 02:15:49;;;;;;;;;;;;;;;8.38;63.15;97350.34;5043333;28;20415;-57
2024/02/07 02:18:38;;;;;;;;;;;;;;;8.36;63.07;97341.72;5046679;28;19924;-57
2024/02/07 02:21:27;;;;;;;;;;;;;;;8.36;63.22;97329.03;5040425;28;20294;-57
2024/02/07 02:24:21;;;;;;;;;;;;;;;8.37;63.22;97319.78;5043478;28;19948;-57
2024/02/07 02:27:11;;;;;;;;;;;;;;;8.31;63.03;97315.59;5041943;28;20019;-58
2024/02/07 02:30:09;;;;;;;;;;;;;;;8.32;63.32;97305.56;5043980;28;19932;-57
2024/02/07 02:32:57;;;;;;;;;;;;;;;8.31;63.03;97283.09;5040859;28;19929;-61
2024/02/07 02:35:46;;;;;;;;;;;;;;;8.37;63.38;97294.63;5038923;28;19925;-57
2024/02/07 02:38:36;;;;;;;;;;;;;;;8.37;63.11;97279.19;5044363;28;19932;-56
2024/02/07 02:41:24;;;;;;;;;;;;;;;8.37;63.31;97267.56;5044946;28;19970;-57
2024/02/07 02:44:12;;;;;;;;;;;;;;;8.30;63.59;97275.28;5045086;28;19925;-56
2024/02/07 02:47:02;;;;;;;;;;;;;;;8.21;63.64;97271.75;5038464;28;19932;-57
2024/02/07 02:49:52;;;;;;;;;;;;;;;8.20;63.85;97276.34;5046460;28;20018;-56
2024/02/07 02:52:39;;;;;;;;;;;;;;;8.25;63.61;97270.78;5045149;28;19968;-56
2024/02/07 02:55:27;;;;;;;;;;;;;;;8.22;63.69;97271.44;5047087;28;20374;-56
2024/02/07 02:58:20;;;;;;;;;;;;;;;8.29;63.48;97282.59;5040754;28;19924;-57
2024/02/07 03:01:19;;;;;;;;;;;;;;;8.34;63.50;97277.06;5049682;28;19924;-57
2024/02/07 03:04:15;;;;;;;;;;;;;;;8.34;63.23;97257.31;5040884;28;19925;-59
2024/02/07 03:07:25;;;;;;;;;;;;;;;8.41;63.00;97249.56;5048816;28;19948;-58
2024/02/07 03:10:12;;;;;;;;;;;;;;;8.43;62.97;97250.06;5046855;28;20673;-57
2024/02/07 03:13:00;;;;;;;;;;;;;;;8.37;62.86;97233.16;5052027;28;19925;-58
2024/02/07 03:15:49;;;;;;;;;;;;;;;8.43;62.73;97239.25;5050642;28;19925;-57
2024/02/07 03:18:38;;;;;;;;;;;;;;;8.42;62.82;97240.34;5051211;28;20430;-56
2024/02/07 03:21:28;;;;;;;;;;;;;;;8.40;63.17;97240.66;5050029;28;19925;-56
2024/02/07 03:24:16;;;;;;;;;;;;;;;8.37;63.17;97237.78;5048912;28;19925;-57
2024/02/07 03:27:04;;;;;;;;;;;;;;;8.44;63.25;97229.22;5043554;28;19931;-58
2024/02/07 03:29:53;;;;;;;;;;;;;;;8.44;62.98;97231.91;5040604;28;19928;-57
2024/02/07 03:32:41;;;;;;;;;;;;;;;8.47;62.74;97231.28;5045276;28;19929;-56
2024/02/07 03:35:30;;;;;;;;;;;;;;;8.45;62.71;97220.75;5047283;28;20306;-56
2024/02/07 03:38:20;;;;;;;;;;;;;;;8.46;62.63;97229.69;5047499;28;19929;-57
2024/02/07 03:41:09;;;;;;;;;;;;;;;8.51;62.69;97234.94;5047787;28;19925;-56
2024/02/07 03:43:58;;;;;;;;;;;;;;;8.47;62.70;97228.56;5046996;28;19926;-56
2024/02/07 03:46:48;;;;;;;;;;;;;;;8.47;62.27;97228.56;5032476;28;19932;-56
2024/02/07 03:49:38;;;;;;;;;;;;;;;8.52;62.64;97223.00;5042240;28;20019;-56
2024/02/07 03:52:27;;;;;;;;;;;;;;;8.54;62.50;97220.81;5044106;28;19964;-56
2024/02/07 03:55:19;;;;;;;;;;;;;;;8.54;62.47;97218.88;5046037;28;20151;-60
2024/02/07 03:58:11;;;;;;;;;;;;;;;8.44;62.85;97219.16;5046682;28;20083;-58
2024/02/07 04:00:59;;;;;;;;;;;;;;;8.48;63.01;97214.72;5048867;28;19931;-57
2024/02/07 04:03:47;;;;;;;;;;;;;;;8.51;63.00;97219.50;5046566;28;19925;-57
2024/02/07 04:06:35;;;;;;;;;;;;;;;8.55;62.84;97223.19;5041361;28;19951;-59
2024/02/07 04:09:24;;;;;;;;;;;;;;;8.56;63.05;97213.94;5042444;28;20425;-56
2024/02/07 05:17:04;;;;;;;;;;;;;;;8.87;61.70;97156.97;5048124;28;19925;-58
2024/02/07 05:19:57;;;;;;;;;;;;;;;9.00;61.77;97152.53;5046599;28;19959;-57
2024/02/07 05:22:47;;;;;;;;;;;;;;;9.04;61.39;97150.75;5042479;28;19940;-57
2024/02/07 05:25:36;;;;;;;;;;;;;;;9.14;61.22;97145.00;5043911;28;20407;-56
2024/02/07 05:28:24;;;;;;;;;;;;;;;9.16;60.89;97153.63;5044664;28;19929;-58
2024/02/07 05:31:14;;;;;;;;;;;;;;;9.26;60.92;97144.34;5045190;28;19933;-61
2024/02/07 05:34:02;;;;;;;;;;;;;;;9.32;60.51;97145.78;5043070;28;20465;-57
2024/02/07 05:36:50;;;;;;;;;;;;;;;9.35;60.50;97139.72;5039855;28;20646;-57
2024/02/07 05:39:39;;;;;;;;;;;;;;;9.39;60.38;97139.88;5041725;28;20041;-57
2024/02/07 05:42:27;;;;;;;;;;;;;;;9.23;60.64;97126.03;5044076;28;19948;-57
2024/02/07 05:45:15;;;;;;;;;;;;;;;9.28;60.49;97134.00;5035555;28;20408;-56
2024/02/07 05:48:05;;;;;;;;;;;;;;;9.28;60.74;97123.16;5039409;28;20421;-57
2024/02/07 05:50:53;;;;;;;;;;;;;;;9.26;60.83;97133.50;5042623;28;20347;-57
2024/02/07 05:53:41;;;;;;;;;;;;;;;9.31;60.53;97111.66;5044012;28;19925;-57
2024/02/07 05:56:29;;;;;;;;;;;;;;;9.23;60.84;97114.41;5037783;28;20367;-58
2024/02/07 05:59:18;;;;;;;;;;;;;;;9.34;60.85;97123.78;5038354;28;19936;-56
2024/02/07 06:02:05;;;;;;;;;;;;;;;9.32;60.72;97123.28;5043552;28;19931;-56
2024/02/07 06:04:57;;;;;;;;;;;;;;;9.33;60.94;97095.09;5037883;28;19960;-56
2024/02/07 06:07:46;;;;;;;;;;;;;;;9.43;60.74;97095.53;5044895;28;19935;-57
2024/02/07 06:10:37;;;;;;;;;;;;;;;9.37;61.00;97094.09;5039760;28;19925;-56
2024/02/07 06:13:25;;;;;;;;;;;;;;;9.34;61.11;97086.63;5044649;28;20370;-57
2024/02/07 06:16:13;;;;;;;;;;;;;;;9.38;61.22;97093.00;5040097;28;19925;-56
2024/02/07 06:19:02;;;;;;;;;;;;;;;9.39;61.38;97096.50;5040728;28;19931;-58
2024/02/07 06:21:52;;;;;;;;;;;;;;;9.35;61.67;97090.91;5042692;28;19978;-57
2024/02/07 06:24:40;;;;;;;;;;;;;;;9.40;61.41;97081.81;5041851;28;19936;-59
2024/02/07 06:27:28;;;;;;;;;;;;;;;9.39;61.40;97088.38;5040254;28;20445;-57
2024/02/07 06:30:17;;;;;;;;;;;;;;;9.40;61.47;97082.63;5049690;28;20011;-56
2024/02/07 06:33:05;;;;;;;;;;;;;;;9.59;61.04;97081.44;5050002;28;19925;-55
2024/02/07 06:35:53;;;;;;;;;;;;;;;9.63;60.93;97091.31;5046376;28;19924;-56
2024/02/07 06:38:42;;;;;;;;;;;;;;;9.62;60.57;97088.91;5048798;28;19931;-56
2024/02/07 06:41:30;;;;;;;;;;;;;;;9.57;60.86;97091.81;5041619;28;20488;-59
2024/02/07 06:44:18;;;;;;;;;;;;;;;9.72;60.46;97094.00;5045245;28;20015;-57
2024/02/07 06:47:06;;;;;;;;;;;;;;;9.76;60.31;97094.94;5039622;28;19925;-55
2024/02/07 06:49:54;;;;;;;;;;;;;;;9.76;60.02;97094.94;5040580;28;20442;-60
2024/02/07 06:52:42;;;;;;;;;;;;;;;9.70;60.24;97098.97;5047220;28;19932;-57
2024/02/07 06:55:33;;;;;;;;;;;;;;;9.63;60.60;97101.34;5040390;28;19933;-56
2024/02/07 06:58:21;;;;;;;;;;;;;;;9.58;60.53;97090.69;5051277;28;20294;-59
2024/02/07 07:01:09;;;;;;;;;;;;;;;9.59;60.61;97078.75;5047476;28;19932;-57
2024/02/07 07:03:57;;;;;;;;;;;;;;;9.58;60.83;97082.53;5051318;28;19929;-56
2024/02/07 07:06:45;;;;;;;;;;;;;;;9.60;60.69;97083.03;5041373;28;19936;-56
2024/02/07 07:09:34;;;;;;;;;;;;;;;9.62;60.64;97091.63;5045187;28;19925;-56
2024/02/07 07:12:23;;;;;;;;;;;;;;;9.59;60.88;97082.25;5047683;28;19932;-57
2024/02/07 07:15:12;;;;;;;;;;;;;;;9.65;60.58;97089.06;5047231;28;19936;-57
2024/02/07 07:18:09;;;;;;;;;;;;;;;9.62;60.78;97088.91;5049599;28;19932;-57
2024/02/07 07:20:57;;;;;;;;;;;;;;;9.66;61.24;97087.16;5048137;28;20000;-56
2024/02/07 07:23:45;;;;;;;;;;;;;;;9.66;61.15;97079.03;5045441;28;19939;-57
2024/02/07 07:26:33;;;;;;;;;;;;;;;9.62;61.33;97078.88;5049203;28;19931;-56
2024/02/07 07:29:23;;;;;;;;;;;;;;;9.70;61.66;97085.41;5033415;28;19931;-56
2024/02/07 07:32:11;;;;;;;;;;;;;;;9.69;61.82;97086.50;5051610;28;19966;-57
2024/02/07 07:34:58;;;;;;;;;;;;;;;9.67;62.29;97083.31;5043120;28;19952;-56
2024/02/07 07:37:47;;;;;;;;;;;;;;;9.65;62.81;97077.44;5048775;28;20333;-57
2024/02/07 07:40:38;;;;;;;;;;;;;;;9.59;63.45;97065.97;5045333;28;20464;-56
2024/02/07 07:43:26;;;;;;;;;;;;;;;9.48;64.50;97061.22;5050718;28;20053;-55
2024/02/07 07:46:18;;;;;;;;;;;;;;;9.43;64.70;97071.13;5045483;28;20328;-57
2024/02/07 07:49:07;;;;;;;;;;;;;;;9.51;65.05;97068.72;5051280;28;20337;-56
2024/02/07 07:51:55;;;;;;;;;;;;;;;9.43;65.12;97071.13;5046432;28;19963;-57
2024/02/07 07:54:43;;;;;;;;;;;;;;;9.42;65.68;97077.66;5046201;28;20382;-57
2024/02/07 07:57:31;;;;;;;;;;;;;;;9.40;65.67;97074.47;5041610;28;20078;-57
2024/02/07 08:00:19;;;;;;;;;;;;;;;9.40;65.89;97071.78;5042962;28;19936;-56
2024/02/07 08:03:08;;;;;;;;;;;;;;;9.44;66.11;97055.66;5046615;28;19925;-57
2024/02/07 08:05:56;;;;;;;;;;;;;;;9.54;65.80;97070.78;5047498;28;20413;-56
2024/02/07 08:08:45;;;;;;;;;;;;;;;9.44;66.16;97059.16;5046230;28;19924;-56
2024/02/07 08:11:33;;;;;;;;;;;;;;;9.50;65.88;97065.19;5049348;28;19925;-58
2024/02/07 08:14:21;;;;;;;;;;;;;;;9.64;65.91;97063.09;5048038;28;19960;-57
2024/02/07 08:17:10;;;;;;;;;;;;;;;9.64;66.15;97070.41;5048760;28;19932;-58
2024/02/07 08:19:59;;;;;;;;;;;;;;;9.64;65.77;97062.25;5050569;28;19932;-56
2024/02/07 08:22:47;;;;;;;;;;;;;;;9.65;65.71;97063.88;5045181;28;20359;-56
2024/02/07 08:25:35;;;;;;;;;;;;;;;9.67;65.14;97072.47;5041864;28;19925;-57
2024/02/07 08:28:23;;;;;;;;;;;;;;;9.67;65.27;97058.91;5041045;28;20446;-56
2024/02/07 08:31:13;;;;;;;;;;;;;;;9.72;65.99;97064.16;5044725;28;19925;-56
2024/02/07 08:34:01;;;;;;;;;;;;;;;9.69;65.90;97071.03;5043747;28;19931;-56
2024/02/07 08:36:50;;;;;;;;;;;;;;;9.70;65.93;97063.69;5044659;28;19929;-56
2024/02/07 08:39:38;;;;;;;;;;;;;;;9.74;65.69;97070.03;5045824;28;20303;-57
2024/02/07 08:42:26;;;;;;;;;;;;;;;9.75;65.82;97073.53;5050350;28;19925;-56
2024/02/07 08:45:14;;;;;;;;;;;;;;;9.72;66.36;97064.16;5047839;28;19932;-56
2024/02/07 08:48:03;;;;;;;;;;;;;;;9.63;66.06;97063.38;5046557;28;19931;-57
2024/02/07 08:50:51;;;;;;;;;;;;;;;9.66;66.06;97062.75;5047109;28;19936;-57
2024/02/07 08:53:40;;;;;;;;;;;;;;;9.61;66.20;97054.78;5047161;28;21257;-57
2024/02/07 08:56:29;;;;;;;;;;;;;;;9.61;66.65;97057.50;5046134;28;20012;-57
2024/02/07 08:59:17;;;;;;;;;;;;;;;9.65;66.49;97056.53;5044205;28;20272;-57
2024/02/07 09:02:06;;;;;;;;;;;;;;;9.59;66.96;97054.34;5048415;28;20378;-56
2024/02/07 09:04:56;;;;;;;;;;;;;;;9.61;67.31;97057.50;5048339;28;20378;-56
2024/02/07 09:07:44;;;;;;;;;;;;;;;9.63;66.77;97049.81;5048877;28;19925;-57
2024/02/07 09:10:35;;;;;;;;;;;;;;;9.74;66.81;97045.63;5048873;28;19951;-57
2024/02/07 09:13:23;;;;;;;;;;;;;;;9.80;66.76;97046.22;5043715;28;19926;-57
2024/02/07 09:16:11;;;;;;;;;;;;;;;9.79;66.91;97041.94;5043422;28;19924;-58
2024/02/07 09:18:59;;;;;;;;;;;;;;;9.85;67.01;97044.13;5045815;28;19981;-56
2024/02/07 09:21:47;;;;;;;;;;;;;;;9.95;66.77;97040.25;5042926;28;19932;-57
2024/02/07 09:24:36;;;;;;;;;;;;;;;9.90;66.19;97038.53;5043693;28;20294;-55
2024/02/07 09:27:25;;;;;;;;;;;;;;;9.92;67.97;97025.44;5049008;28;19924;-56
2024/02/07 09:30:13;;;;;;;;;;;;;;;10.14;66.71;97034.41;5040532;28;19971;-57
2024/02/07 09:33:01;;;;;;;;;;;;;;;10.08;66.46;97022.16;5045683;28;19932;-57
2024/02/07 09:35:50;;;;;;;;;;;;;;;10.16;66.54;97024.00;5043462;28;20542;-57
2024/02/07 09:38:38;;;;;;;;;;;;;;;10.25;66.67;97018.56;5048638;28;20529;-56
2024/02/07 09:41:26;;;;;;;;;;;;;;;10.32;65.99;97029.66;5039644;28;20036;-57
2024/02/07 09:44:16;;;;;;;;;;;;;;;10.25;66.23;97021.25;5037898;28;19933;-56
2024/02/07 09:47:04;;;;;;;;;;;;;;;10.35;66.27;97029.03;5049451;28;20267;-57
2024/02/07 09:49:52;;;;;;;;;;;;;;;10.29;67.03;97019.50;5048714;28;20430;-57
2024/02/07 09:52:40;;;;;;;;;;;;;;;10.31;66.53;97015.31;5041308;28;19933;-57
2024/02/07 09:55:28;;;;;;;;;;;;;;;10.34;66.07;97022.00;5042485;28;20378;-56
2024/02/07 09:58:17;;;;;;;;;;;;;;;10.32;65.61;97014.16;5046509;28;20292;-57
2024/02/07 10:01:07;;;;;;;;;;;;;;;10.19;66.39;97021.44;5053162;28;19925;-56
2024/02/07 10:03:56;;;;;;;;;;;;;;;10.12;66.30;97014.91;5047330;28;19924;-56
2024/02/07 10:06:44;;;;;;;;;;;;;;;10.18;66.85;97019.84;5050777;28;19929;-57
2024/02/07 10:09:32;;;;;;;;;;;;;;;10.22;67.33;97026.19;5052175;28;19925;-56
2024/02/07 10:12:20;;;;;;;;;;;;;;;10.22;66.66;97020.75;5054422;28;20007;-64
2024/02/07 10:15:08;;;;;;;;;;;;;;;10.18;66.98;97013.63;5051152;28;19924;-56
2024/02/07 10:17:57;;;;;;;;;;;;;;;10.32;67.75;97013.38;5050264;28;19932;-56
2024/02/07 10:20:51;;;;;;;;;;;;;;;10.24;67.41;97009.63;5046846;28;20282;-57
2024/02/07 10:23:39;;;;;;;;;;;;;;;10.41;67.75;97004.03;5050422;28;19925;-56
2024/02/07 10:26:27;;;;;;;;;;;;;;;10.34;66.21;97009.22;5042996;28;19925;-56
2024/02/07 10:29:18;;;;;;;;;;;;;;;10.33;66.58;96996.75;5051422;28;19931;-57
2024/02/07 10:32:07;;;;;;;;;;;;;;;10.56;66.58;96999.94;5047439;28;19995;-56
2024/02/07 10:34:56;;;;;;;;;;;;;;;10.66;66.54;97004.97;5051796;28;19970;-56
2024/02/07 10:37:46;;;;;;;;;;;;;;;10.57;66.29;96998.00;5046067;28;20030;-57
2024/02/07 10:40:39;;;;;;;;;;;;;;;10.65;66.82;96997.94;5032183;28;19937;-56
2024/02/07 10:43:27;;;;;;;;;;;;;;;10.47;66.66;97000.00;5047578;28;19925;-56
2024/02/07 10:46:18;;;;;;;;;;;;;;;10.60;66.99;96984.56;5047884;28;19925;-56
2024/02/07 10:49:07;;;;;;;;;;;;;;;10.60;66.85;96992.72;5051453;28;19964;-57
2024/02/07 10:51:56;;;;;;;;;;;;;;;10.53;67.20;96997.88;5047310;28;20325;-56
2024/02/07 10:54:45;;;;;;;;;;;;;;;10.53;66.93;96994.38;5049047;28;19937;-60
2024/02/07 10:57:38;;;;;;;;;;;;;;;10.43;67.27;96987.41;5045444;28;20310;-56
2024/02/07 11:00:26;;;;;;;;;;;;;;;10.58;67.02;96983.28;5036705;28;19936;-56
2024/02/07 11:03:14;;;;;;;;;;;;;;;10.49;67.72;96978.75;5049253;28;20394;-55
2024/02/07 11:06:02;;;;;;;;;;;;;;;10.64;67.61;96971.88;5048571;28;19993;-55
2024/02/07 11:08:51;;;;;;;;;;;;;;;10.56;67.99;96969.25;5047377;28;19929;-56
2024/02/07 11:11:40;;;;;;;;;;;;;;;10.51;67.88;96958.59;5045316;28;20298;-56
2024/02/07 11:14:29;;;;;;;;;;;;;;;10.57;68.07;96957.28;5047874;28;19925;-55
2024/02/07 11:17:17;;;;;;;;;;;;;;;10.40;67.99;96961.72;5050405;28;19925;-56
2024/02/07 11:20:06;;;;;;;;;;;;;;;10.64;67.97;96944.72;5049724;28;19932;-57
2024/02/07 11:22:54;;;;;;;;;;;;;;;10.65;67.84;96945.50;5047811;28;20302;-56
2024/02/07 11:25:44;;;;;;;;;;;;;;;10.76;68.08;96943.97;5050330;28;19928;-56
2024/02/07 11:28:32;;;;;;;;;;;;;;;10.72;67.70;96940.34;5047804;28;20014;-57
2024/02/07 11:31:20;;;;;;;;;;;;;;;10.62;67.88;96938.06;5049923;28;20302;-56
2024/02/07 11:34:08;;;;;;;;;;;;;;;10.60;68.12;96932.13;5047862;28;19944;-55
2024/02/07 11:36:56;;;;;;;;;;;;;;;10.61;67.12;96933.75;5046517;28;20346;-57
2024/02/07 11:39:44;;;;;;;;;;;;;;;10.70;67.30;96921.66;5045012;28;19932;-56
2024/02/07 11:42:38;;;;;;;;;;;;;;;10.72;67.31;96930.28;5049552;28;19939;-57
2024/02/07 11:45:26;;;;;;;;;;;;;;;10.85;66.65;96924.84;5044568;28;20461;-57
2024/02/07 11:48:18;;;;;;;;;;;;;;;10.61;66.90;96917.47;5046907;28;19925;-56
2024/02/07 11:51:07;;;;;;;;;;;;;;;10.56;67.06;96925.81;5051433;28;19935;-57
2024/02/07 11:53:57;;;;;;;;;;;;;;;10.36;67.81;96928.22;5048510;28;19925;-55
2024/02/07 11:56:54;;;;;;;;;;;;;;;10.37;68.66;96918.16;5050364;28;19932;-58
2024/02/07 11:59:43;;;;;;;;;;;;;;;10.41;68.83;96902.78;5051350;28;19935;-57
2024/02/07 12:02:31;;;;;;;;;;;;;;;10.37;68.92;96907.28;5044228;28;19929;-56
2024/02/07 12:05:21;;;;;;;;;;;;;;;10.48;68.95;96913.88;5046902;28;19926;-57
2024/02/07 12:08:10;;;;;;;;;;;;;;;10.42;68.84;96910.59;5050303;28;19967;-55
2024/02/07 12:10:58;;;;;;;;;;;;;;;10.44;68.96;96908.34;5047138;28;19925;-56
2024/02/07 12:13:50;;;;;;;;;;;;;;;10.41;68.90;96903.59;5042907;28;20750;-55
2024/02/07 12:16:39;;;;;;;;;;;;;;;10.38;69.93;96906.94;5049529;28;19925;-55
2024/02/07 12:19:32;;;;;;;;;;;;;;;10.39;69.69;96905.84;5048526;28;19948;-57
2024/02/07 12:22:20;;;;;;;;;;;;;;;10.42;69.84;96907.88;5048336;28;19925;-58
2024/02/07 12:25:12;;;;;;;;;;;;;;;10.48;69.71;96897.59;5049280;28;19924;-56
2024/02/07 12:28:08;;;;;;;;;;;;;;;10.42;69.64;96904.38;5041647;28;20046;-55
2024/02/07 12:30:58;;;;;;;;;;;;;;;10.47;69.40;96893.31;5040946;28;19925;-56
2024/02/07 12:33:48;;;;;;;;;;;;;;;10.45;70.51;96895.56;5049774;28;20008;-56
2024/02/07 12:36:36;;;;;;;;;;;;;;;10.47;70.15;96896.81;5045527;28;19924;-56
2024/02/07 12:39:24;;;;;;;;;;;;;;;10.41;69.76;96892.72;5042973;28;19924;-57
2024/02/07 12:42:13;;;;;;;;;;;;;;;10.39;69.80;96884.13;5043983;28;19991;-56
2024/02/07 12:45:01;;;;;;;;;;;;;;;10.35;70.78;96887.84;5050204;28;19992;-56
2024/02/07 12:47:49;;;;;;;;;;;;;;;10.34;71.04;96886.25;5043974;28;19924;-57
2024/02/07 12:50:39;;;;;;;;;;;;;;;10.38;70.52;96884.44;5049642;28;19947;-56
2024/02/07 12:53:27;;;;;;;;;;;;;;;10.23;70.91;96875.81;5050645;28;19924;-57
2024/02/07 12:56:18;;;;;;;;;;;;;;;10.42;71.14;96878.00;5051681;28;19947;-56
2024/02/07 12:59:07;;;;;;;;;;;;;;;10.29;71.53;96884.53;5047329;28;20297;-56
2024/02/07 13:01:56;;;;;;;;;;;;;;;10.47;70.63;96875.09;5046904;28;20294;-56
2024/02/07 13:04:44;;;;;;;;;;;;;;;10.42;70.68;96864.44;5050184;28;19929;-56
2024/02/07 13:07:34;;;;;;;;;;;;;;;10.39;70.23;96862.41;5047673;28;19924;-57
2024/02/07 13:10:22;;;;;;;;;;;;;;;10.52;70.34;96854.28;5047561;28;19932;-56
2024/02/07 13:13:10;;;;;;;;;;;;;;;10.48;69.86;96860.38;5049693;28;19925;-56
2024/02/07 13:15:58;;;;;;;;;;;;;;;10.60;69.89;96861.53;5047253;28;19952;-56
2024/02/07 13:18:47;;;;;;;;;;;;;;;10.54;69.64;96852.00;5048099;28;20317;-57
2024/02/07 13:21:35;;;;;;;;;;;;;;;10.61;69.75;96852.28;5047397;28;20294;-56
2024/02/07 13:24:24;;;;;;;;;;;;;;;10.65;69.43;96859.41;5043953;28;19925;-56
2024/02/07 13:27:12;;;;;;;;;;;;;;;10.63;69.59;96847.28;5045609;28;20513;-56
2024/02/07 13:30:00;;;;;;;;;;;;;;;10.69;69.97;96851.38;5049077;28;19932;-56
2024/02/07 13:32:51;;;;;;;;;;;;;;;10.60;69.38;96842.50;5046950;28;19924;-56
2024/02/07 13:35:39;;;;;;;;;;;;;;;10.61;69.80;96839.47;5047747;28;19964;-56
2024/02/07 13:38:27;;;;;;;;;;;;;;;10.47;69.44;96847.94;5046423;28;20286;-57
2024/02/07 13:41:22;;;;;;;;;;;;;;;10.44;69.88;96842.41;5049710;28;20397;-56
2024/02/07 13:44:12;;;;;;;;;;;;;;;10.51;69.37;96848.06;5045004;28;19936;-56
2024/02/07 13:47:01;;;;;;;;;;;;;;;10.44;69.69;96835.03;5043871;28;19925;-56
2024/02/07 13:49:50;;;;;;;;;;;;;;;10.47;69.79;96847.94;5045176;28;20130;-55
2024/02/07 13:52:38;;;;;;;;;;;;;;;10.42;69.77;96826.41;5049955;28;20007;-55
2024/02/07 13:55:26;;;;;;;;;;;;;;;10.45;69.93;96822.25;5048161;28;19925;-55
2024/02/07 13:58:15;;;;;;;;;;;;;;;10.46;69.91;96829.28;5045999;28;20301;-56
2024/02/07 14:01:03;;;;;;;;;;;;;;;10.48;69.28;96819.63;5045713;28;19928;-55
2024/02/07 14:03:52;;;;;;;;;;;;;;;10.41;69.54;96816.69;5042304;28;19944;-56
2024/02/07 14:06:40;;;;;;;;;;;;;;;10.46;69.43;96819.19;5046936;28;19931;-56
2024/02/07 14:09:28;;;;;;;;;;;;;;;10.57;69.28;96822.28;5043601;28;19951;-57
2024/02/07 14:12:16;;;;;;;;;;;;;;;10.66;68.57;96816.75;5043920;28;19925;-56
2024/02/07 14:15:06;;;;;;;;;;;;;;;10.65;67.70;96826.81;5040559;28;19932;-55
2024/02/07 14:17:54;;;;;;;;;;;;;;;10.60;68.51;96810.75;5047820;28;19925;-55
2024/02/07 14:20:43;;;;;;;;;;;;;;;10.53;68.32;96812.41;5048672;28;19932;-56
2024/02/07 14:23:31;;;;;;;;;;;;;;;10.42;69.01;96807.41;5035137;28;19972;-56
2024/02/07 14:26:19;;;;;;;;;;;;;;;10.57;68.53;96802.47;5041854;28;19936;-55
2024/02/07 14:29:07;;;;;;;;;;;;;;;10.43;68.72;96811.72;5041678;28;19936;-56
2024/02/07 14:31:56;;;;;;;;;;;;;;;10.36;69.07;96808.75;5041690;28;19985;-55
2024/02/07 14:34:45;;;;;;;;;;;;;;;10.49;68.83;96806.84;5044517;28;20507;-56
2024/02/07 14:37:34;;;;;;;;;;;;;;;10.45;68.91;96811.41;5038552;28;19998;-55
2024/02/07 14:40:22;;;;;;;;;;;;;;;10.49;68.83;96804.97;5039647;28;19925;-57
2024/02/07 14:43:10;;;;;;;;;;;;;;;10.36;68.36;96803.34;5042532;28;20016;-57
2024/02/07 14:45:59;;;;;;;;;;;;;;;10.37;68.62;96793.25;5043004;28;21624;-56
2024/02/07 14:48:48;;;;;;;;;;;;;;;10.32;69.00;96810.56;5035196;28;20401;-56
2024/02/07 14:51:36;;;;;;;;;;;;;;;10.45;68.57;96801.31;5048014;28;20045;-56
2024/02/07 14:54:25;;;;;;;;;;;;;;;10.45;68.04;96800.53;5050502;28;20301;-56
2024/02/07 14:57:13;;;;;;;;;;;;;;;10.38;68.33;96806.50;5047689;28;19925;-56
2024/02/07 15:00:02;;;;;;;;;;;;;;;10.38;67.94;96806.50;5050016;28;20030;-55
2024/02/07 15:02:50;;;;;;;;;;;;;;;10.27;68.83;96805.34;5041345;28;19994;-55
2024/02/07 15:05:40;;;;;;;;;;;;;;;10.28;68.92;96790.66;5045453;28;20018;-57
2024/02/07 15:08:28;;;;;;;;;;;;;;;10.19;69.86;96800.78;5044305;28;19925;-57
2024/02/07 15:11:16;;;;;;;;;;;;;;;10.33;69.62;96795.84;5049850;28;19935;-56
2024/02/07 15:14:04;;;;;;;;;;;;;;;10.32;69.94;96794.28;5049583;28;19924;-55
2024/02/07 15:16:52;;;;;;;;;;;;;;;10.31;69.77;96800.03;5048569;28;19944;-56
2024/02/07 15:19:43;;;;;;;;;;;;;;;10.34;70.89;96794.75;5047474;28;19925;-56
2024/02/07 15:22:32;;;;;;;;;;;;;;;10.13;70.98;96794.00;5047137;28;20409;-56
2024/02/07 15:25:22;;;;;;;;;;;;;;;10.22;71.28;96792.75;5037778;28;20430;-56
2024/02/07 15:28:10;;;;;;;;;;;;;;;10.19;71.05;96776.34;5041766;28;19932;-56
2024/02/07 15:30:58;;;;;;;;;;;;;;;10.24;71.81;96787.03;5046433;28;21031;-56
2024/02/07 15:33:46;;;;;;;;;;;;;;;10.22;71.37;96781.09;5049794;28;19924;-58
2024/02/07 15:36:35;;;;;;;;;;;;;;;10.20;71.08;96780.66;5040535;28;19940;-56
2024/02/07 15:39:25;;;;;;;;;;;;;;;10.27;71.17;96777.41;5047811;28;20379;-56
2024/02/07 15:42:13;;;;;;;;;;;;;;;10.19;71.56;96773.66;5033414;28;19925;-56
2024/02/07 15:45:01;;;;;;;;;;;;;;;10.20;71.56;96772.50;5047682;28;20401;-57
2024/02/07 15:47:49;;;;;;;;;;;;;;;10.13;71.87;96773.06;5048970;28;19977;-55
2024/02/07 15:50:39;;;;;;;;;;;;;;;10.21;71.65;96771.38;5051495;28;19925;-58